Airfield :
LOGIN :

Register | Disclaimer

   EN    FR    IT 

 










Legend :    VFR   Marginal VFR   IFR   Intensive IFR   Very Intensive IFR
Visi :
Ceiling :
>= 8 km
>= 3000ft
5 to 8 km
1000 to 3000 ft
1500m to 5 km
500 to 1000 ft
800 to 1500m
200 to 500 ft
< 800m
< 200 ft
Symbols :   Thunderstorms  Fog  Heavy snow  Heavy precipitations  Wind > 20 kt
SIGMETs :     Misc.  Thunderstorms  Icing  Turbulence  Mountain Waves  Volcanic Ashes







- Airport Elevation : 194 ft
- IATA code : LME
- Download approach charts


LFRM - Le Mans

CURRENT METAR :
  • 222000Z AUTO 25009KT 200V300 CAVOK 17/11 Q1011 NOSIG

EXPIRED METARs :
  • 221930Z AUTO 22006KT 180V260 9999 FEW047 18/11 Q1010 NOSIG
  • 221900Z AUTO 22007KT 180V250 CAVOK 18/11 Q1010 TEMPO 24015G25KT 4000 SHRA BKN020TCU
  • 221830Z AUTO 23006KT 190V270 9999 FEW041 18/12 Q1010 TEMPO 24015G25KT 4000 SHRA BKN020TCU
  • 221800Z AUTO 22007KT 190V250 9999 FEW044 19/12 Q1009 TEMPO 24015G25KT 4000 SHRA BKN020TCU
  • 221730Z AUTO 22010KT 190V250 9999 FEW043 20/12 Q1009 TEMPO 24015G25KT 4000 SHRA BKN020TCU

TAF AMD TAF LFRM
Valid from the 22 at 17:00 until the 23 at 18:00 UTC


221724Z 2217/2318 23008KT 9999 SCT040
TEMPO 2218/2220 24015G25KT 4000 SHRA BKN020TCU
PROB30
TEMPO 2302/2308 BKN005
BECMG 2308/2312 BKN020 SCT025TCU
No reported NOTAMs for that airfield.



MET'MAP, your aeronautical weather chart ! - Copyright ORBIFLY December 2007 - Disclaimer

ORBIFLY MET'MAP TEAM :

Programming & Development : Alexandra Zaïnal
Concept & Development : Baudouin d'Aumeries
Co-Development & Prog : Marc-Olivier Méhu
Technical & hardware support : Manuel Goepfert

Contact : metmap@orbifly.com




SOURCES & CREDITS :

   NOAA